Kongiganak, AK

9:08 AM AKDT on September 20, 2014 (GMT -0800)
Bethel | Change Station
CLOSE
Current Station
Airport
Location: Bethel,
Elevation: 148 ft
Nearby Weather Stations

Elev 148 ft 60.79 °N, 161.83 °W | Updated 15 minutes ago

Overcast
Overcast
43 °F
Feels Like 35 °F
N
17
Wind Variable Wind from NNW

Today
High -- | Low -- °F
--% Chance of Precip.
Yesterday
High -- | Low -- °F
Precip. -- in
8:26 AM 8:52 PM
Waning Crescent, 11% visible
Pressure 29.70 in
Visibility 10.0 miles
Clouds Overcast 3400 ft
Windchill 35 °F
Dew Point 39 °F
Humidity 86%
Rainfall 0.00 in
Snow Depth 2 in , 109 in , 1 in
UV 0 out of 12
Pollen Not available.
Air Quality Not available.
Flu Activity Not available.
METAR PABE 201653Z 33015KT 10SM OVC034 06/04 A2969 RMK AO2 SLP055 T00610039

More Conditions Fewer Conditions

Pressure 29.70 in
Visibility 10.0 miles
Clouds Overcast 3400 ft
Windchill 35 °F
Dew Point 39 °F
Humidity 86%
Rainfall 0.00 in
Snow Depth 2 in , 109 in , 1 in
UV 0 out of 12
Pollen Not available.
Air Quality Not available.
Flu Activity Not available.
METAR PABE 201653Z 33015KT 10SM OVC034 06/04 A2969 RMK AO2 SLP055 T00610039

More Conditions Fewer Conditions

10-Day Weather Forecast

Almanac

Astronomy

Sep. 20, 2014 Rise Set
Actual Time 8:26 AM AKDT 8:52 PM AKDT
Civil Twilight 7:43 AM AKDT 9:34 PM AKDT
Nautical Twilight 6:51 AM AKDT 10:26 PM AKDT
Astronomical Twilight 5:54 AM AKDT 11:23 PM AKDT
Moon 4:35 AM AKDT 7:34 PM AKDT
Length of Visible Light 13h 50m
Length of Day
12h 25m
Tomorrow will be 5m 33s shorter.
Waning Crescent, 11% of the Moon is Illuminated
Today
Waning Crescent
Sep 24
New
Oct 1
First Quarter
Oct 8
Full
Oct 15
Last Quarter

Today's Extremes

State Highs State Lows

Community

WunderPhotos

Upload Photos

1,754,906 photos uploaded!

Nearby

Snow Depth

Station Depth Elevation
Atigun Pass 2 in 4800 ft
Susitna Valley High 109 in 375 ft
Indian Pass 1 in 2300 ft
Munson Ridge 1 in 3100 ft
Long Lake 0 in 820 ft

Earthquake Activity

City Distance Mag. Time & Date
No recent earthquake activity has been reported nearby.
Minimum magnitude displayed is 2.5.

Coastal Water Temperatures

Place Temperature
No Stations Reporting

Nearby Weather Stations